Time;durP1;ratioP1;P1;durP2;ratioP2;P2;SDS_P1;SDS_P2;PMS_P1;PMS_P2;Temp;Humidity;BMP_temperature;BMP_pressure;BME280_temperature;BME280_humidity;BME280_pressure;Samples;Min_cycle;Max_cycle;Signal;HPM_P1;HPM_P2
2022/04/14 00:01:28;;;;;;;31.10;17.05;;;9.40;65.90;;;;;;5036390;28;20053;-52
2022/04/14 00:03:54;;;;;;;31.30;16.27;;;9.40;65.70;;;;;;5037592;28;20461;-52
2022/04/14 00:06:21;;;;;;;31.30;16.35;;;9.40;66.00;;;;;;5037706;28;20468;-52
2022/04/14 00:08:47;;;;;;;28.73;15.93;;;9.40;66.90;;;;;;5035889;28;20101;-53
2022/04/14 00:11:13;;;;;;;34.72;18.10;;;9.30;66.80;;;;;;5036744;28;20123;-52
2022/04/14 00:13:38;;;;;;;37.53;17.58;;;9.30;67.50;;;;;;5037599;28;20025;-52
2022/04/14 00:16:05;;;;;;;34.35;19.05;;;9.40;68.50;;;;;;5035751;28;20025;-52
2022/04/14 00:18:30;;;;;;;33.63;17.63;;;9.30;67.80;;;;;;5038085;28;20462;-52
2022/04/14 00:20:56;;;;;;;38.15;18.02;;;9.30;67.80;;;;;;5037283;28;20112;-52
2022/04/14 00:23:22;;;;;;;37.10;18.35;;;9.40;68.30;;;;;;5043274;28;20502;-53
2022/04/14 00:25:48;;;;;;;41.53;18.55;;;9.40;69.40;;;;;;5049386;28;20029;-51
2022/04/14 00:28:13;;;;;;;34.58;17.08;;;9.30;70.50;;;;;;5052294;28;20487;-51
2022/04/14 00:30:39;;;;;;;35.92;18.27;;;9.20;70.60;;;;;;5044794;28;20060;-52
2022/04/14 00:33:05;;;;;;;35.47;18.40;;;9.30;71.70;;;;;;5040843;28;20039;-52
2022/04/14 00:35:31;;;;;;;36.08;19.98;;;9.20;72.30;;;;;;5043433;28;20487;-51
2022/04/14 00:37:56;;;;;;;41.10;22.00;;;9.20;72.20;;;;;;5058450;28;20031;-51
2022/04/14 00:40:22;;;;;;;40.13;21.55;;;9.20;72.10;;;;;;5059015;28;20422;-51
2022/04/14 00:42:48;;;;;;;39.70;22.90;;;9.20;73.00;;;;;;5061279;28;20082;-51
2022/04/14 00:45:14;;;;;;;42.83;22.50;;;9.20;73.20;;;;;;5058780;28;20032;-52
2022/04/14 00:47:40;;;;;;;40.13;21.73;;;9.20;73.20;;;;;;5061196;28;20131;-51
2022/04/14 00:50:06;;;;;;;45.10;21.08;;;9.20;73.90;;;;;;5046654;28;20478;-57
2022/04/14 00:52:31;;;;;;;42.60;22.48;;;9.20;74.40;;;;;;5038502;28;20025;-52
2022/04/14 00:54:57;;;;;;;42.42;22.98;;;9.20;75.10;;;;;;5036425;28;20021;-53
2022/04/14 00:57:23;;;;;;;40.38;21.48;;;9.10;75.10;;;;;;5039891;28;20059;-51
2022/04/14 00:59:49;;;;;;;39.63;22.00;;;9.10;76.80;;;;;;5046111;28;20031;-53
2022/04/14 01:02:15;;;;;;;44.00;23.00;;;9.00;76.70;;;;;;5036480;28;20021;-51
2022/04/14 01:04:41;;;;;;;39.10;22.92;;;9.00;78.50;;;;;;5038302;28;20009;-51
2022/04/14 01:07:08;;;;;;;42.63;22.48;;;9.00;78.70;;;;;;5038082;28;20581;-51
2022/04/14 01:09:36;;;;;;;42.80;23.10;;;9.00;79.30;;;;;;5048058;28;20123;-51
2022/04/14 01:12:03;;;;;;;43.20;24.45;;;9.00;82.10;;;;;;5048178;28;20029;-52
2022/04/14 01:14:30;;;;;;;47.45;25.70;;;8.90;83.60;;;;;;5041213;28;20021;-52
2022/04/14 01:16:59;;;;;;;47.80;26.70;;;8.90;87.60;;;;;;5038903;28;20033;-51
2022/04/14 01:19:25;;;;;;;47.67;26.58;;;8.90;88.40;;;;;;5035807;28;20628;-52
2022/04/14 01:22:01;;;;;;;50.58;26.58;;;8.80;90.50;;;;;;5036111;28;20221;-53
2022/04/14 01:24:28;;;;;;;48.10;25.58;;;8.70;91.40;;;;;;5033573;28;20476;-52
2022/04/14 01:26:55;;;;;;;49.20;27.63;;;8.70;91.80;;;;;;5031854;28;20113;-54
2022/04/14 01:29:23;;;;;;;44.10;25.35;;;8.70;92.90;;;;;;5031963;28;20034;-53
2022/04/14 01:31:49;;;;;;;;;;;8.60;93.10;;;;;;5031697;28;20032;-53
2022/04/14 01:34:15;;;;;;;47.17;24.58;;;8.50;94.50;;;;;;5031942;28;19944;-52
2022/04/14 01:36:40;;;;;;;43.85;23.85;;;8.40;94.70;;;;;;5032279;28;20026;-52
2022/04/14 01:39:08;;;;;;;51.28;23.58;;;8.40;95.50;;;;;;5036238;28;20803;-52
2022/04/14 01:41:34;;;;;;;45.33;22.42;;;8.30;94.50;;;;;;5052412;28;20067;-53
2022/04/14 01:44:00;;;;;;;44.47;23.75;;;8.40;96.30;;;;;;5052076;28;20048;-53
2022/04/14 01:46:25;;;;;;;47.40;25.13;;;8.40;96.80;;;;;;5051622;28;20392;-52
2022/04/14 01:48:51;;;;;;;44.72;23.83;;;8.40;97.70;;;;;;5051472;28;20033;-52
2022/04/14 01:51:17;;;;;;;42.40;23.77;;;8.30;98.60;;;;;;5051721;28;20408;-52
2022/04/14 01:53:43;;;;;;;51.00;23.77;;;8.30;99.90;;;;;;5051711;28;20029;-52
2022/04/14 01:56:08;;;;;;;50.70;24.48;;;8.20;98.70;;;;;;5051512;28;20035;-51
2022/04/14 01:58:34;;;;;;;48.92;26.23;;;8.20;99.80;;;;;;5051214;28;20025;-53
2022/04/14 02:00:59;;;;;;;58.50;27.15;;;8.20;99.90;;;;;;5050784;28;20039;-52
2022/04/14 02:03:25;;;;;;;46.13;24.83;;;8.10;99.90;;;;;;5051111;28;20024;-52
2022/04/14 02:05:51;;;;;;;45.47;24.20;;;8.10;99.90;;;;;;5051040;28;20021;-52
2022/04/14 02:08:16;;;;;;;45.63;24.38;;;8.10;99.90;;;;;;5051258;28;20029;-52
2022/04/14 02:10:42;;;;;;;44.80;23.77;;;8.00;99.90;;;;;;5050966;28;20486;-52
2022/04/14 02:13:08;;;;;;;50.42;25.00;;;7.90;99.90;;;;;;5051051;28;20029;-53
2022/04/14 02:15:33;;;;;;;46.13;24.42;;;7.90;99.90;;;;;;5051338;28;20040;-52
2022/04/14 02:17:59;;;;;;;51.72;25.83;;;7.90;99.90;;;;;;5051081;28;20065;-52
2022/04/14 02:20:24;;;;;;;49.20;27.13;;;7.90;99.90;;;;;;5051259;28;20080;-52
2022/04/14 02:22:50;;;;;;;56.92;27.48;;;7.90;99.90;;;;;;5050758;28;20025;-52
2022/04/14 02:25:18;;;;;;;56.80;26.67;;;7.90;99.90;;;;;;5051016;28;20033;-53
2022/04/14 02:27:43;;;;;;;;;;;7.90;99.90;;;;;;5051751;28;20029;-53
2022/04/14 02:30:10;;;;;;;44.38;24.88;;;7.80;99.90;;;;;;5050685;28;19958;-53
2022/04/14 02:32:36;;;;;;;46.20;25.87;;;7.70;99.90;;;;;;5051279;28;20469;-52
2022/04/14 02:35:04;;;;;;;51.13;26.40;;;7.70;99.90;;;;;;5050698;28;20272;-53
2022/04/14 02:37:30;;;;;;;49.33;26.60;;;7.60;99.90;;;;;;5050326;28;20024;-53
2022/04/14 02:39:55;;;;;;;42.67;23.50;;;7.60;99.90;;;;;;5050317;28;20025;-52
2022/04/14 02:42:21;;;;;;;51.08;24.83;;;7.50;99.90;;;;;;5050849;28;20029;-52
2022/04/14 02:44:46;;;;;;;46.85;25.15;;;7.60;99.90;;;;;;5050475;28;20472;-52
2022/04/14 02:47:12;;;;;;;51.72;25.85;;;7.50;99.90;;;;;;5050504;28;20769;-52
2022/04/14 02:49:38;;;;;;;52.40;28.05;;;7.50;99.90;;;;;;5050694;28;20038;-52
2022/04/14 02:52:04;;;;;;;54.65;27.65;;;7.40;99.90;;;;;;5050548;28;20512;-53
2022/04/14 02:54:29;;;;;;;51.97;25.73;;;7.40;99.90;;;;;;5049153;28;20056;-52
2022/04/14 02:56:55;;;;;;;45.58;24.75;;;7.30;99.90;;;;;;5049835;28;20075;-52
2022/04/14 02:59:21;;;;;;;48.92;25.40;;;7.30;99.90;;;;;;5050311;28;20025;-51
2022/04/14 03:01:46;;;;;;;47.30;25.77;;;7.30;99.90;;;;;;5050530;28;20033;-53
2022/04/14 03:04:12;;;;;;;52.25;26.85;;;7.30;99.90;;;;;;5050570;28;20086;-52
2022/04/14 03:06:38;;;;;;;53.95;29.38;;;7.30;99.90;;;;;;5050027;28;20055;-52
2022/04/14 03:09:03;;;;;;;57.15;32.35;;;7.30;99.90;;;;;;5049624;28;20128;-52
2022/04/14 03:11:29;;;;;;;64.78;34.00;;;7.30;99.90;;;;;;5049547;28;20550;-53
2022/04/14 03:13:55;;;;;;;62.22;34.00;;;7.20;99.90;;;;;;5049899;28;20025;-52
2022/04/14 03:16:20;;;;;;;63.00;36.15;;;7.20;99.90;;;;;;5050009;28;20037;-52
2022/04/14 03:18:46;;;;;;;64.70;36.42;;;7.10;99.90;;;;;;5049766;28;20021;-51
2022/04/14 03:21:12;;;;;;;65.97;37.95;;;7.30;99.90;;;;;;5032271;28;20033;-52
2022/04/14 03:23:39;;;;;;;66.43;37.10;;;7.20;99.90;;;;;;5050014;28;20029;-52
2022/04/14 03:26:08;;;;;;;;;;;7.30;99.90;;;;;;5050451;28;20025;-51
2022/04/14 03:28:34;;;;;;;56.30;32.92;;;7.20;99.90;;;;;;5049811;28;19909;-53
2022/04/14 03:30:59;;;;;;;53.15;29.35;;;7.30;99.90;;;;;;5049917;28;20037;-51
2022/04/14 03:33:25;;;;;;;52.90;28.35;;;7.30;99.90;;;;;;5049615;28;20097;-53
2022/04/14 03:35:51;;;;;;;47.42;26.52;;;7.20;99.90;;;;;;5049667;28;20025;-50
2022/04/14 03:38:16;;;;;;;49.33;27.10;;;7.20;99.90;;;;;;5049791;28;20056;-51
2022/04/14 03:40:42;;;;;;;49.90;25.67;;;7.20;99.90;;;;;;5049630;28;20041;-52
2022/04/14 03:43:08;;;;;;;52.80;26.23;;;7.30;99.90;;;;;;5049094;28;20032;-53
2022/04/14 03:45:34;;;;;;;46.35;25.60;;;7.30;99.90;;;;;;5048564;28;20032;-51
2022/04/14 03:47:59;;;;;;;49.50;25.75;;;7.30;99.90;;;;;;5049212;28;20773;-52
2022/04/14 03:50:25;;;;;;;51.65;26.25;;;7.20;99.90;;;;;;5049051;28;20778;-52
2022/04/14 03:52:51;;;;;;;51.33;27.38;;;7.10;99.90;;;;;;5049253;28;20074;-51
2022/04/14 03:55:16;;;;;;;59.10;27.25;;;7.10;99.90;;;;;;5049189;28;20053;-50
2022/04/14 03:57:42;;;;;;;59.97;28.90;;;7.10;99.90;;;;;;5048270;28;20029;-52
2022/04/14 04:00:08;;;;;;;57.63;29.35;;;7.10;99.90;;;;;;5048461;28;20404;-52
2022/04/14 04:02:37;;;;;;;81.50;35.92;;;7.10;99.90;;;;;;5048574;28;20028;-53
2022/04/14 04:05:04;;;;;;;74.20;33.70;;;7.00;99.90;;;;;;5048663;28;20017;-51
2022/04/14 04:07:30;;;;;;;80.18;36.75;;;6.90;99.90;;;;;;5049075;28;20404;-53
2022/04/14 04:09:55;;;;;;;76.10;38.42;;;6.90;99.90;;;;;;5048892;28;20476;-52
2022/04/14 04:12:21;;;;;;;83.40;40.72;;;6.80;99.90;;;;;;5048759;28;20025;-52
2022/04/14 04:14:48;;;;;;;77.63;39.25;;;6.70;99.90;;;;;;5048496;28;20028;-52
2022/04/14 04:17:15;;;;;;;81.25;40.78;;;6.90;99.90;;;;;;5048604;28;20086;-52
2022/04/14 04:19:43;;;;;;;;;;;6.90;99.90;;;;;;5049296;28;20112;-53
2022/04/14 04:22:09;;;;;;;72.25;37.03;;;6.80;99.90;;;;;;5048543;28;19939;-52
2022/04/14 04:24:35;;;;;;;61.55;31.80;;;6.80;99.90;;;;;;5048710;28;20025;-52
2022/04/14 04:27:00;;;;;;;66.72;35.72;;;6.80;99.90;;;;;;5048620;28;20033;-54
2022/04/14 04:29:26;;;;;;;69.15;34.85;;;6.60;99.90;;;;;;5048667;28;20029;-52
2022/04/14 04:31:52;;;;;;;73.55;37.40;;;6.60;99.90;;;;;;5048756;28;20507;-51
2022/04/14 04:34:18;;;;;;;73.25;35.92;;;6.60;99.90;;;;;;5048768;28;20032;-51
2022/04/14 04:36:43;;;;;;;69.22;34.17;;;6.70;99.90;;;;;;5048377;28;20072;-51
2022/04/14 04:39:09;;;;;;;73.70;34.70;;;6.90;99.90;;;;;;5048396;28;20086;-53
2022/04/14 04:41:35;;;;;;;73.68;35.58;;;6.80;99.90;;;;;;5030483;28;20062;-53
2022/04/14 04:44:00;;;;;;;65.00;32.25;;;6.80;99.90;;;;;;5048663;28;20740;-52
2022/04/14 04:46:26;;;;;;;66.72;31.35;;;6.80;99.90;;;;;;5048150;28;20447;-52
2022/04/14 04:48:52;;;;;;;65.97;31.95;;;6.70;99.90;;;;;;5048574;28;20033;-51
2022/04/14 04:51:18;;;;;;;60.65;29.83;;;6.60;99.90;;;;;;5048046;28;20041;-53
2022/04/14 04:53:43;;;;;;;59.58;28.65;;;6.70;99.90;;;;;;5048519;28;20029;-52
2022/04/14 04:56:09;;;;;;;61.42;26.85;;;6.60;99.90;;;;;;5047987;28;20844;-52
2022/04/14 04:58:35;;;;;;;59.17;27.45;;;6.60;99.90;;;;;;5048100;28;20029;-52
2022/04/14 05:01:00;;;;;;;55.60;26.42;;;6.60;99.90;;;;;;5048043;28;20037;-53
2022/04/14 05:03:26;;;;;;;59.78;27.45;;;6.70;99.90;;;;;;5048078;28;20036;-51
2022/04/14 05:05:52;;;;;;;60.67;27.27;;;6.70;99.90;;;;;;5048448;28;20060;-50
2022/04/14 05:08:17;;;;;;;67.13;31.02;;;6.70;99.90;;;;;;5048186;28;20025;-51
2022/04/14 05:10:43;;;;;;;76.85;31.35;;;6.80;99.90;;;;;;5048102;28;20040;-52
2022/04/14 05:13:09;;;;;;;85.43;35.55;;;7.00;99.90;;;;;;5048171;28;20112;-54
2022/04/14 05:15:36;;;;;;;82.68;37.53;;;7.00;99.90;;;;;;5046551;28;20028;-52
2022/04/14 05:18:02;;;;;;;84.38;36.50;;;7.20;99.90;;;;;;5048402;28;20025;-52
2022/04/14 05:20:28;;;;;;;89.57;37.17;;;7.20;99.90;;;;;;5047760;28;20068;-51
2022/04/14 05:22:54;;;;;;;83.53;37.72;;;7.20;99.90;;;;;;5047701;28;20028;-51
2022/04/14 05:25:19;;;;;;;78.97;36.20;;;7.30;99.90;;;;;;5047673;28;20025;-52
2022/04/14 05:27:45;;;;;;;81.95;36.75;;;7.30;99.90;;;;;;5047892;28;20059;-52
2022/04/14 05:30:11;;;;;;;66.82;32.20;;;7.40;99.90;;;;;;5047956;28;20036;-52
2022/04/14 05:32:38;;;;;;;72.97;33.53;;;7.50;99.90;;;;;;5047877;28;20025;-52
2022/04/14 05:35:06;;;;;;;;;;;7.50;99.90;;;;;;5048507;28;20135;-52
2022/04/14 05:37:32;;;;;;;63.93;30.73;;;7.60;99.90;;;;;;5047897;28;19912;-53
2022/04/14 05:39:57;;;;;;;65.50;30.30;;;7.60;99.90;;;;;;5047715;28;20392;-52
2022/04/14 05:42:23;;;;;;;72.13;31.48;;;7.70;99.90;;;;;;5048084;28;20040;-52
2022/04/14 05:44:49;;;;;;;60.63;30.23;;;7.80;99.90;;;;;;5047662;28;20625;-53
2022/04/14 05:47:14;;;;;;;65.38;30.77;;;7.90;99.90;;;;;;5047620;28;20053;-51
2022/04/14 05:49:40;;;;;;;65.22;32.72;;;8.00;99.90;;;;;;5052569;28;20396;-52
2022/04/14 05:52:06;;;;;;;63.80;33.00;;;8.10;99.90;;;;;;5050947;28;20036;-52
2022/04/14 05:54:32;;;;;;;58.13;30.27;;;8.20;99.90;;;;;;5065187;28;20071;-52
2022/04/14 05:56:57;;;;;;;63.95;30.35;;;8.30;99.90;;;;;;5056006;28;20060;-52
2022/04/14 05:59:23;;;;;;;64.00;33.30;;;8.40;99.90;;;;;;5057624;28;20024;-51
2022/04/14 06:01:49;;;;;;;58.13;30.35;;;8.50;99.90;;;;;;5041554;28;20618;-53
2022/04/14 06:04:14;;;;;;;60.33;31.35;;;8.60;99.90;;;;;;5054775;28;20578;-52
2022/04/14 06:06:40;;;;;;;67.65;32.65;;;8.80;99.90;;;;;;5053020;28;20033;-53
2022/04/14 06:09:06;;;;;;;54.03;30.15;;;8.90;99.90;;;;;;5052738;28;20162;-53
2022/04/14 06:11:32;;;;;;;58.22;30.35;;;9.00;99.90;;;;;;5042307;28;20225;-53
2022/04/14 06:13:58;;;;;;;49.28;29.60;;;9.10;99.90;;;;;;5036311;28;20067;-52
2022/04/14 06:16:23;;;;;;;51.33;28.88;;;9.30;99.90;;;;;;5046989;28;20638;-51
2022/04/14 06:18:50;;;;;;;59.67;30.15;;;9.40;99.90;;;;;;5042815;28;20043;-51
2022/04/14 06:21:16;;;;;;;67.07;31.10;;;9.60;99.90;;;;;;5059888;28;20064;-51
2022/04/14 06:23:42;;;;;;;54.15;30.27;;;9.70;99.90;;;;;;5048837;28;20057;-52
2022/04/14 06:26:07;;;;;;;60.58;31.98;;;9.80;99.90;;;;;;5060212;28;20730;-53
2022/04/14 06:28:34;;;;;;;53.10;30.55;;;9.90;99.90;;;;;;5053337;28;20064;-52
2022/04/14 06:31:00;;;;;;;58.95;31.25;;;10.00;99.90;;;;;;5059913;28;20085;-52
2022/04/14 06:33:30;;;;;;;52.80;29.08;;;10.20;99.90;;;;;;5071408;28;20059;-52
2022/04/14 06:35:57;;;;;;;48.50;25.75;;;10.40;99.90;;;;;;5070568;28;20025;-53
2022/04/14 06:38:25;;;;;;;45.25;23.92;;;10.50;99.90;;;;;;5070145;28;20024;-51
2022/04/14 06:40:52;;;;;;;40.58;23.55;;;10.60;99.90;;;;;;5070025;28;20077;-52
2022/04/14 06:43:18;;;;;;;44.08;24.85;;;10.80;99.90;;;;;;5069705;28;20020;-52
2022/04/14 06:45:44;;;;;;;44.20;22.20;;;11.00;99.90;;;;;;5069986;28;20032;-52
2022/04/14 06:48:10;;;;;;;41.28;22.50;;;11.10;99.90;;;;;;5070674;28;20691;-52
2022/04/14 06:50:35;;;;;;;41.85;23.58;;;11.30;99.90;;;;;;5070647;28;20048;-52
2022/04/14 06:53:02;;;;;;;36.80;20.40;;;11.50;99.90;;;;;;5052890;28;20059;-52
2022/04/14 06:55:28;;;;;;;37.10;19.70;;;11.60;99.90;;;;;;5048782;28;20142;-52
2022/04/14 06:57:53;;;;;;;39.58;20.48;;;11.70;99.90;;;;;;5049154;28;20795;-52
2022/04/14 07:00:23;;;;;;;41.55;21.77;;;11.90;99.90;;;;;;5049783;28;20058;-52
2022/04/14 07:02:52;;;;;;;34.03;19.15;;;12.00;99.90;;;;;;5050541;28;20051;-51
2022/04/14 07:05:18;;;;;;;34.88;20.88;;;12.00;99.90;;;;;;5050306;28;20021;-51
2022/04/14 07:07:44;;;;;;;38.55;19.20;;;12.10;99.90;;;;;;5050088;28;20472;-52
2022/04/14 07:10:13;;;;;;;35.88;18.23;;;12.20;99.90;;;;;;5049843;28;20041;-51
2022/04/14 07:12:39;;;;;;;33.65;19.05;;;12.20;99.90;;;;;;5050115;28;20120;-52
2022/04/14 07:15:07;;;;;;;34.60;17.98;;;12.30;99.90;;;;;;5050362;28;20451;-51
2022/04/14 07:17:34;;;;;;;;;;;12.40;99.90;;;;;;5048831;28;20032;-52
2022/04/14 07:20:00;;;;;;;25.45;15.45;;;12.60;99.90;;;;;;5048863;28;19931;-51
2022/04/14 07:22:26;;;;;;;28.75;16.58;;;12.70;99.90;;;;;;5049533;28;20491;-52
2022/04/14 07:24:51;;;;;;;29.30;17.45;;;12.80;99.90;;;;;;5049446;28;20086;-51
2022/04/14 07:27:19;;;;;;;31.35;16.08;;;12.90;99.90;;;;;;5049453;28;20063;-51
2022/04/14 07:29:48;;;;;;;30.23;16.88;;;13.00;99.90;;;;;;5049442;28;20028;-51
2022/04/14 07:32:15;;;;;;;27.38;17.38;;;13.00;99.90;;;;;;5049747;28;20641;-52
2022/04/14 07:34:40;;;;;;;30.13;16.17;;;13.20;99.90;;;;;;5049769;28;20040;-53
2022/04/14 07:37:06;;;;;;;28.17;16.50;;;13.30;97.20;;;;;;5049680;28;20036;-51
2022/04/14 07:39:32;;;;;;;30.48;16.27;;;13.50;97.90;;;;;;5049939;28;20021;-50
2022/04/14 07:41:58;;;;;;;29.02;14.77;;;13.50;96.40;;;;;;5031874;28;20060;-52
2022/04/14 07:44:24;;;;;;;25.83;14.32;;;13.60;96.00;;;;;;5049551;28;20645;-53
2022/04/14 07:46:50;;;;;;;32.53;15.43;;;13.70;95.60;;;;;;5031513;28;20048;-52
2022/04/14 07:49:16;;;;;;;28.98;15.52;;;13.80;95.80;;;;;;5049774;28;20036;-52
2022/04/14 07:51:41;;;;;;;30.02;13.85;;;13.90;94.50;;;;;;5049501;28;20037;-52
2022/04/14 07:54:07;;;;;;;28.42;14.98;;;14.10;92.10;;;;;;5049013;28;20051;-53
2022/04/14 07:56:33;;;;;;;24.67;14.90;;;14.10;94.00;;;;;;5049397;28;20025;-52
2022/04/14 07:58:59;;;;;;;29.02;13.93;;;14.20;93.20;;;;;;5050814;28;20031;-51
2022/04/14 08:01:25;;;;;;;28.47;15.23;;;14.30;92.10;;;;;;5049059;28;20025;-54
2022/04/14 08:03:51;;;;;;;24.90;13.82;;;14.50;91.20;;;;;;5049153;28;20101;-51
2022/04/14 08:06:17;;;;;;;31.15;14.52;;;14.50;90.10;;;;;;5048923;28;20017;-51
2022/04/14 08:08:43;;;;;;;26.15;13.23;;;14.60;90.50;;;;;;5048835;28;20119;-52
2022/04/14 08:11:10;;;;;;;21.92;11.85;;;14.70;89.50;;;;;;5048783;28;20037;-53
2022/04/14 08:13:38;;;;;;;25.63;13.57;;;14.70;83.60;;;;;;5048833;28;20017;-51
2022/04/14 08:16:08;;;;;;;26.02;12.90;;;14.90;84.80;;;;;;5048890;28;20037;-52
2022/04/14 08:18:39;;;;;;;25.90;12.02;;;15.00;86.20;;;;;;5049207;28;20025;-51
2022/04/14 08:21:05;;;;;;;20.17;11.70;;;15.10;83.30;;;;;;5042390;28;20029;-50
2022/04/14 08:23:31;;;;;;;21.35;11.90;;;15.20;81.00;;;;;;5031147;28;20033;-52
2022/04/14 08:25:57;;;;;;;27.23;13.50;;;15.30;81.50;;;;;;5049226;28;20070;-53
2022/04/14 08:28:23;;;;;;;25.67;12.77;;;15.40;79.80;;;;;;5049236;28;20033;-52
2022/04/14 08:30:49;;;;;;;22.23;12.02;;;15.30;80.40;;;;;;5049158;28;20032;-52
2022/04/14 08:33:18;;;;;;;28.65;13.38;;;15.40;76.20;;;;;;5048500;28;20021;-51
2022/04/14 08:35:44;;;;;;;23.45;12.30;;;15.60;82.00;;;;;;5048791;28;20032;-52
2022/04/14 08:38:10;;;;;;;26.20;13.20;;;15.90;80.40;;;;;;5048928;28;20059;-52
2022/04/14 08:40:38;;;;;;;24.15;12.52;;;16.10;79.70;;;;;;5049009;28;20024;-52
2022/04/14 08:43:09;;;;;;;34.13;13.50;;;15.90;78.50;;;;;;5030745;28;20916;-52
2022/04/14 08:45:45;;;;;;;23.20;12.63;;;15.90;78.70;;;;;;5048829;28;20444;-51
2022/04/14 08:48:15;;;;;;;21.85;13.27;;;16.00;77.50;;;;;;5048505;28;20056;-52
2022/04/14 08:50:44;;;;;;;24.33;13.05;;;16.20;76.30;;;;;;5048481;28;20153;-52
2022/04/14 08:53:10;;;;;;;29.40;11.93;;;16.30;75.00;;;;;;5048536;28;20065;-52
2022/04/14 08:55:41;;;;;;;22.08;11.45;;;16.40;72.10;;;;;;5048312;28;20029;-51
2022/04/14 08:58:13;;;;;;;23.60;13.20;;;16.50;70.80;;;;;;5048765;28;20037;-51
2022/04/14 09:00:39;;;;;;;24.30;12.68;;;16.80;73.90;;;;;;5048819;28;20029;-51
2022/04/14 09:03:05;;;;;;;22.33;11.05;;;16.70;73.00;;;;;;5053310;28;20369;-52
2022/04/14 09:05:31;;;;;;;24.10;11.38;;;16.90;71.80;;;;;;5054700;28;20060;-52
2022/04/14 09:07:56;;;;;;;18.52;9.27;;;17.00;68.70;;;;;;5055900;28;20028;-51
2022/04/14 09:10:22;;;;;;;18.85;10.13;;;17.20;68.90;;;;;;5057370;28;20688;-51
2022/04/14 09:12:49;;;;;;;17.80;9.88;;;17.40;65.90;;;;;;5039533;28;20358;-51
2022/04/14 09:15:15;;;;;;;20.75;10.80;;;17.80;61.80;;;;;;5047485;28;20040;-51
2022/04/14 09:17:41;;;;;;;17.00;9.05;;;18.30;64.40;;;;;;5028794;28;20053;-52
2022/04/14 09:20:37;;;;;;;20.02;10.02;;;18.40;62.70;;;;;;5048239;28;20060;-52
2022/04/14 09:23:18;;;;;;;21.48;10.88;;;18.60;63.00;;;;;;5048428;28;20037;-51
2022/04/14 09:25:44;;;;;;;17.98;9.80;;;18.50;60.80;;;;;;5030022;28;20362;-52
2022/04/14 09:28:11;;;;;;;18.42;10.38;;;19.20;60.50;;;;;;5028662;28;20036;-51
2022/04/14 09:30:37;;;;;;;18.58;8.77;;;19.10;63.30;;;;;;5028355;28;20041;-52
2022/04/14 09:33:03;;;;;;;15.70;8.35;;;19.40;58.60;;;;;;5028401;28;20033;-53
2022/04/14 09:35:31;;;;;;;19.52;9.85;;;19.20;59.10;;;;;;5028365;28;20140;-51
2022/04/14 09:38:13;;;;;;;19.42;10.00;;;19.20;57.50;;;;;;5027932;28;20181;-53
2022/04/14 09:40:40;;;;;;;29.48;10.10;;;19.10;57.30;;;;;;5010102;28;20392;-51
2022/04/14 09:43:06;;;;;;;19.20;8.82;;;19.30;60.00;;;;;;5028149;28;20534;-50
2022/04/14 09:45:35;;;;;;;18.50;9.77;;;19.10;55.80;;;;;;5031057;28;20033;-52
2022/04/14 09:48:05;;;;;;;17.30;10.05;;;19.30;57.00;;;;;;5031531;28;20038;-51
2022/04/14 09:50:39;;;;;;;17.70;9.38;;;19.10;55.90;;;;;;5031506;28;20591;-51
2022/04/14 09:53:12;;;;;;;16.08;9.23;;;19.40;57.20;;;;;;5040682;28;20071;-51
2022/04/14 09:55:50;;;;;;;13.73;8.25;;;19.40;55.10;;;;;;5051040;28;20075;-51
2022/04/14 09:58:17;;;;;;;;;;;20.40;55.20;;;;;;5051125;28;20055;-51
2022/04/14 10:00:43;;;;;;;25.05;9.52;;;20.60;52.80;;;;;;5052541;28;19913;-52
2022/04/14 10:03:11;;;;;;;15.20;7.38;;;20.00;53.80;;;;;;5058416;28;20553;-53
2022/04/14 10:05:37;;;;;;;18.00;8.48;;;20.40;54.10;;;;;;5063201;28;20036;-51
2022/04/14 10:08:07;;;;;;;18.20;8.38;;;20.60;51.10;;;;;;5065766;28;20024;-52
2022/04/14 10:10:37;;;;;;;16.17;7.35;;;20.00;51.30;;;;;;5057794;28;20677;-52
2022/04/14 10:13:08;;;;;;;14.68;7.40;;;20.10;52.60;;;;;;5057493;28;20036;-52
2022/04/14 10:15:35;;;;;;;22.05;8.20;;;20.20;52.30;;;;;;5058271;28;20028;-51
2022/04/14 10:18:09;;;;;;;18.27;8.43;;;19.90;51.10;;;;;;5060726;28;20064;-52
2022/04/14 10:20:37;;;;;;;16.45;7.72;;;19.50;51.10;;;;;;5061719;28;20043;-52
2022/04/14 10:23:04;;;;;;;19.48;8.07;;;20.30;51.70;;;;;;5061234;28;20081;-53
2022/04/14 10:25:30;;;;;;;14.75;8.75;;;20.10;52.00;;;;;;5057083;28;20033;-50
2022/04/14 10:27:59;;;;;;;15.73;7.63;;;20.70;49.60;;;;;;5040046;28;20100;-51
2022/04/14 10:30:26;;;;;;;15.77;7.82;;;20.80;51.10;;;;;;5050891;28;20068;-52
2022/04/14 10:32:56;;;;;;;18.40;9.20;;;21.00;50.40;;;;;;5050641;28;20032;-53
2022/04/14 10:35:26;;;;;;;17.35;8.23;;;20.60;49.80;;;;;;5055395;28;20032;-52
2022/04/14 10:38:11;;;;;;;17.55;7.70;;;20.50;50.80;;;;;;5061139;28;20021;-52
2022/04/14 10:40:42;;;;;;;16.48;7.25;;;20.90;48.90;;;;;;5056664;28;20625;-51
2022/04/14 10:43:09;;;;;;;15.57;7.82;;;21.00;50.50;;;;;;5058695;28;20472;-51
2022/04/14 10:45:52;;;;;;;;;;;20.70;48.00;;;;;;5056164;28;20484;-52
2022/04/14 10:48:33;;;;;;;15.20;8.02;;;21.10;49.70;;;;;;5056059;28;19924;-52
2022/04/14 10:51:18;;;;;;;13.95;8.32;;;21.10;48.00;;;;;;5056653;28;20064;-52
2022/04/14 10:53:55;;;;;;;17.33;8.23;;;21.10;50.50;;;;;;5057058;28;20139;-51
2022/04/14 10:56:42;;;;;;;16.08;7.20;;;21.30;49.10;;;;;;5058234;28;20036;-52
2022/04/14 10:59:13;;;;;;;14.20;7.75;;;21.50;47.20;;;;;;5056823;28;20033;-51
2022/04/14 11:01:50;;;;;;;15.15;7.82;;;22.00;47.80;;;;;;5056328;28;20060;-53
2022/04/14 11:04:36;;;;;;;15.18;7.35;;;22.60;47.40;;;;;;5059176;28;20082;-53
2022/04/14 11:07:23;;;;;;;16.35;7.57;;;22.20;46.70;;;;;;5051480;28;20025;-51
2022/04/14 11:09:51;;;;;;;19.60;8.85;;;22.50;47.80;;;;;;5063254;28;20029;-51
2022/04/14 11:12:23;;;;;;;18.92;8.82;;;22.50;47.00;;;;;;5049416;28;20381;-50
2022/04/14 11:14:57;;;;;;;21.67;8.60;;;22.20;45.90;;;;;;5044433;28;20033;-53
2022/04/14 11:17:38;;;;;;;17.75;8.88;;;22.10;46.40;;;;;;5039277;28;20113;-52
2022/04/14 11:20:18;;;;;;;14.63;7.78;;;22.60;47.50;;;;;;5039632;28;20150;-52
2022/04/14 11:23:13;;;;;;;14.02;8.30;;;22.30;46.10;;;;;;5039287;28;20022;-52
2022/04/14 11:25:39;;;;;;;19.58;7.55;;;22.50;45.70;;;;;;5038488;28;20017;-52
2022/04/14 11:28:27;;;;;;;14.75;7.45;;;22.20;46.00;;;;;;5039475;28;20079;-53
2022/04/14 11:31:04;;;;;;;16.63;7.53;;;22.30;46.00;;;;;;5040516;28;20468;-51
2022/04/14 11:33:30;;;;;;;13.82;7.72;;;22.40;46.60;;;;;;5040266;28;20034;-51
2022/04/14 11:36:12;;;;;;;16.65;8.55;;;21.90;45.40;;;;;;5038451;28;20028;-52
2022/04/14 11:38:57;;;;;;;13.65;7.57;;;22.10;47.60;;;;;;5038729;28;20049;-52
2022/04/14 11:41:36;;;;;;;14.65;8.25;;;21.90;47.20;;;;;;5039312;28;20018;-53
2022/04/14 11:44:13;;;;;;;15.63;7.47;;;21.90;46.40;;;;;;5038581;28;20067;-52
2022/04/14 11:46:40;;;;;;;;;;;22.00;47.50;;;;;;5038514;28;20036;-51
2022/04/14 11:49:09;;;;;;;18.15;7.20;;;22.10;47.90;;;;;;5038907;28;20271;-53
2022/04/14 11:51:43;;;;;;;12.85;7.40;;;22.10;47.30;;;;;;5040228;28;20036;-53
2022/04/14 11:54:09;;;;;;;13.55;6.72;;;22.30;46.60;;;;;;5039846;28;20022;-52
2022/04/14 11:56:35;;;;;;;13.57;7.50;;;22.50;48.80;;;;;;5038278;28;20029;-54
2022/04/14 11:59:01;;;;;;;18.15;7.20;;;22.80;45.50;;;;;;5047805;28;20266;-53
2022/04/14 12:01:26;;;;;;;10.88;6.78;;;22.90;46.90;;;;;;5059471;28;20067;-52
2022/04/14 12:03:53;;;;;;;10.88;6.15;;;22.90;45.00;;;;;;5054289;28;20487;-53
2022/04/14 12:06:19;;;;;;;14.83;6.77;;;22.60;45.70;;;;;;5055901;28;20740;-52
2022/04/14 12:08:55;;;;;;;12.75;6.75;;;22.60;44.20;;;;;;5058383;28;20264;-51
2022/04/14 12:11:24;;;;;;;14.98;7.95;;;22.70;46.50;;;;;;5056570;28;20423;-52
2022/04/14 12:13:50;;;;;;;14.63;8.00;;;22.60;44.10;;;;;;5056915;28;20100;-51
2022/04/14 12:16:15;;;;;;;13.52;7.30;;;22.60;44.70;;;;;;5058648;28;20120;-52
2022/04/14 12:18:50;;;;;;;12.70;7.07;;;22.60;45.20;;;;;;5060530;28;20495;-54
2022/04/14 12:21:20;;;;;;;15.27;7.90;;;22.80;45.20;;;;;;5058971;28;20021;-53
2022/04/14 12:23:47;;;;;;;17.63;7.00;;;22.90;45.40;;;;;;5057564;28;20449;-51
2022/04/14 12:26:13;;;;;;;12.18;6.78;;;23.10;45.40;;;;;;5058560;28;20016;-54
2022/04/14 12:28:39;;;;;;;11.43;6.60;;;23.10;44.40;;;;;;5056809;28;20040;-52
2022/04/14 12:31:16;;;;;;;11.43;6.32;;;23.20;44.10;;;;;;5057603;28;20029;-51
2022/04/14 12:33:55;;;;;;;15.48;6.90;;;23.00;42.20;;;;;;5056609;28;20112;-52
2022/04/14 12:36:20;;;;;;;13.52;7.22;;;23.40;44.30;;;;;;5056434;28;20029;-53
2022/04/14 12:38:50;;;;;;;17.80;6.65;;;23.70;43.50;;;;;;5039491;28;20030;-52
2022/04/14 12:41:17;;;;;;;11.55;6.10;;;23.40;41.90;;;;;;5058393;28;20548;-52